sensor_id;sensor_type;location;lat;lon;timestamp;pressure;altitude;pressure_sealevel;temperature;humidity
41234;BME280;26968;42.686;23.352;2023-02-21T00:01:03;95606.22;;;5.78;nan
41234;BME280;26968;42.686;23.352;2023-02-21T00:03:46;95636.09;;;5.84;nan
41234;BME280;26968;42.686;23.352;2023-02-21T00:06:30;95662.63;;;5.82;nan
41234;BME280;26968;42.686;23.352;2023-02-21T00:09:14;95633.59;;;5.66;nan
41234;BME280;26968;42.686;23.352;2023-02-21T00:11:58;95580.13;;;5.25;nan
41234;BME280;26968;42.686;23.352;2023-02-21T00:14:44;95567.78;;;5.26;nan
41234;BME280;26968;42.686;23.352;2023-02-21T00:17:28;95571.88;;;5.33;nan
41234;BME280;26968;42.686;23.352;2023-02-21T00:20:12;95593.47;;;5.47;nan
41234;BME280;26968;42.686;23.352;2023-02-21T00:22:56;95560.91;;;5.25;nan
41234;BME280;26968;42.686;23.352;2023-02-21T00:25:40;95651.44;;;5.75;nan
41234;BME280;26968;42.686;23.352;2023-02-21T00:28:24;95536.81;;;5.16;nan
41234;BME280;26968;42.686;23.352;2023-02-21T00:31:08;95630.97;;;5.42;nan
41234;BME280;26968;42.686;23.352;2023-02-21T00:33:52;95582.16;;;5.12;nan
41234;BME280;26968;42.686;23.352;2023-02-21T00:36:36;95638.03;;;5.65;nan
41234;BME280;26968;42.686;23.352;2023-02-21T00:39:20;95435.38;;;4.45;nan
41234;BME280;26968;42.686;23.352;2023-02-21T00:42:03;95642.38;;;5.83;nan
41234;BME280;26968;42.686;23.352;2023-02-21T00:44:48;95633.34;;;5.79;nan
41234;BME280;26968;42.686;23.352;2023-02-21T00:47:31;95561.13;;;5.12;nan
41234;BME280;26968;42.686;23.352;2023-02-21T00:50:16;95579.56;;;5.23;nan
41234;BME280;26968;42.686;23.352;2023-02-21T00:52:59;95552.44;;;5.23;nan
41234;BME280;26968;42.686;23.352;2023-02-21T00:55:43;95617.13;;;5.70;nan
41234;BME280;26968;42.686;23.352;2023-02-21T00:58:27;95536.41;;;5.36;nan
41234;BME280;26968;42.686;23.352;2023-02-21T01:01:11;95555.59;;;5.60;nan
41234;BME280;26968;42.686;23.352;2023-02-21T01:03:57;95569.97;;;5.69;nan
41234;BME280;26968;42.686;23.352;2023-02-21T01:06:41;95583.91;;;5.81;nan
41234;BME280;26968;42.686;23.352;2023-02-21T01:09:25;95584.34;;;6.01;nan
41234;BME280;26968;42.686;23.352;2023-02-21T01:12:09;95496.88;;;5.31;nan
41234;BME280;26968;42.686;23.352;2023-02-21T01:14:55;95535.03;;;5.57;nan
41234;BME280;26968;42.686;23.352;2023-02-21T01:17:39;95539.53;;;5.73;nan
41234;BME280;26968;42.686;23.352;2023-02-21T01:20:23;95554.47;;;5.96;nan
41234;BME280;26968;42.686;23.352;2023-02-21T01:23:09;95571.34;;;6.11;nan
41234;BME280;26968;42.686;23.352;2023-02-21T01:25:52;95474.31;;;5.47;nan
41234;BME280;26968;42.686;23.352;2023-02-21T01:28:36;95544.06;;;5.89;nan
41234;BME280;26968;42.686;23.352;2023-02-21T01:31:20;95548.72;;;5.59;nan
41234;BME280;26968;42.686;23.352;2023-02-21T01:34:04;95521.59;;;5.58;nan
41234;BME280;26968;42.686;23.352;2023-02-21T01:36:48;95462.34;;;5.27;nan
41234;BME280;26968;42.686;23.352;2023-02-21T01:39:32;95489.88;;;5.36;nan
41234;BME280;26968;42.686;23.352;2023-02-21T01:42:16;95485.63;;;5.47;nan
41234;BME280;26968;42.686;23.352;2023-02-21T01:48:07;95483.28;;;5.34;nan
41234;BME280;26968;42.686;23.352;2023-02-21T01:50:55;95558.06;;;5.78;nan
41234;BME280;26968;42.686;23.352;2023-02-21T01:53:39;95549.56;;;5.88;nan
41234;BME280;26968;42.686;23.352;2023-02-21T01:56:27;95417.34;;;5.12;nan
41234;BME280;26968;42.686;23.352;2023-02-21T01:59:12;95495.06;;;5.60;nan
41234;BME280;26968;42.686;23.352;2023-02-21T02:02:12;95506.03;;;5.68;nan
41234;BME280;26968;42.686;23.352;2023-02-21T02:05:00;95498.78;;;5.75;nan
41234;BME280;26968;42.686;23.352;2023-02-21T02:07:44;95498.78;;;5.47;nan
41234;BME280;26968;42.686;23.352;2023-02-21T02:10:29;95516.09;;;5.71;nan
41234;BME280;26968;42.686;23.352;2023-02-21T02:29:44;95521.59;;;5.98;nan
41234;BME280;26968;42.686;23.352;2023-02-21T02:35:27;95465.75;;;5.39;nan
41234;BME280;26968;42.686;23.352;2023-02-21T02:38:15;95513.84;;;5.92;nan
41234;BME280;26968;42.686;23.352;2023-02-21T02:46:10;95508.81;;;5.90;nan
41234;BME280;26968;42.686;23.352;2023-02-21T02:48:56;95497.72;;;5.88;nan
41234;BME280;26968;42.686;23.352;2023-02-21T02:51:24;95500.00;;;5.85;nan
41234;BME280;26968;42.686;23.352;2023-02-21T02:53:50;95505.00;;;5.98;nan
41234;BME280;26968;42.686;23.352;2023-02-21T02:56:15;95505.25;;;5.96;nan
41234;BME280;26968;42.686;23.352;2023-02-21T02:59:02;95505.97;;;5.80;nan
41234;BME280;26968;42.686;23.352;2023-02-21T03:15:18;95505.56;;;5.71;nan
41234;BME280;26968;42.686;23.352;2023-02-21T03:17:50;95504.41;;;5.67;nan
41234;BME280;26968;42.686;23.352;2023-02-21T03:20:19;95501.66;;;5.74;nan
41234;BME280;26968;42.686;23.352;2023-02-21T03:22:45;95499.25;;;5.72;nan
41234;BME280;26968;42.686;23.352;2023-02-21T03:25:13;95496.00;;;5.54;nan
41234;BME280;26968;42.686;23.352;2023-02-21T03:27:40;95497.56;;;5.66;nan
41234;BME280;26968;42.686;23.352;2023-02-21T03:30:07;95318.00;;;4.57;nan
41234;BME280;26968;42.686;23.352;2023-02-21T03:32:37;95485.31;;;5.72;nan
41234;BME280;26968;42.686;23.352;2023-02-21T03:35:03;95421.06;;;5.28;nan
41234;BME280;26968;42.686;23.352;2023-02-21T03:37:41;95425.28;;;5.29;nan
41234;BME280;26968;42.686;23.352;2023-02-21T03:40:13;95480.28;;;5.70;nan
41234;BME280;26968;42.686;23.352;2023-02-21T03:42:39;95431.84;;;5.26;nan
41234;BME280;26968;42.686;23.352;2023-02-21T03:45:05;95414.63;;;5.07;nan
41234;BME280;26968;42.686;23.352;2023-02-21T03:47:30;95469.78;;;5.59;nan
41234;BME280;26968;42.686;23.352;2023-02-21T03:49:55;95499.59;;;5.76;nan
41234;BME280;26968;42.686;23.352;2023-02-21T03:52:21;95493.28;;;5.77;nan
41234;BME280;26968;42.686;23.352;2023-02-21T03:54:46;95503.22;;;5.87;nan
41234;BME280;26968;42.686;23.352;2023-02-21T03:57:12;95443.31;;;5.49;nan
41234;BME280;26968;42.686;23.352;2023-02-21T03:59:37;95501.63;;;5.86;nan
41234;BME280;26968;42.686;23.352;2023-02-21T04:02:03;95395.50;;;5.12;nan
41234;BME280;26968;42.686;23.352;2023-02-21T04:04:28;95469.69;;;5.25;nan
41234;BME280;26968;42.686;23.352;2023-02-21T04:06:54;95491.88;;;5.58;nan
41234;BME280;26968;42.686;23.352;2023-02-21T04:09:19;95436.78;;;5.11;nan
41234;BME280;26968;42.686;23.352;2023-02-21T04:11:45;95462.91;;;5.29;nan
41234;BME280;26968;42.686;23.352;2023-02-21T04:14:12;95505.16;;;5.51;nan
41234;BME280;26968;42.686;23.352;2023-02-21T04:16:38;95518.28;;;5.63;nan
41234;BME280;26968;42.686;23.352;2023-02-21T04:19:03;95447.19;;;5.06;nan
41234;BME280;26968;42.686;23.352;2023-02-21T04:21:29;95522.59;;;5.29;nan
41234;BME280;26968;42.686;23.352;2023-02-21T04:23:54;95525.22;;;5.40;nan
41234;BME280;26968;42.686;23.352;2023-02-21T04:26:21;95477.22;;;5.22;nan
41234;BME280;26968;42.686;23.352;2023-02-21T04:28:48;95457.75;;;4.83;nan
41234;BME280;26968;42.686;23.352;2023-02-21T04:31:17;95426.81;;;4.61;nan
41234;BME280;26968;42.686;23.352;2023-02-21T04:33:43;95496.56;;;5.04;nan
41234;BME280;26968;42.686;23.352;2023-02-21T04:36:09;95547.16;;;5.34;nan
41234;BME280;26968;42.686;23.352;2023-02-21T04:38:35;95411.19;;;4.55;nan
41234;BME280;26968;42.686;23.352;2023-02-21T04:41:02;95540.56;;;5.32;nan
41234;BME280;26968;42.686;23.352;2023-02-21T04:43:28;95538.28;;;5.12;nan
41234;BME280;26968;42.686;23.352;2023-02-21T04:45:53;95499.81;;;4.94;nan
41234;BME280;26968;42.686;23.352;2023-02-21T04:48:19;95536.00;;;5.16;nan
41234;BME280;26968;42.686;23.352;2023-02-21T04:50:45;95453.31;;;4.72;nan
41234;BME280;26968;42.686;23.352;2023-02-21T04:53:10;95453.31;;;4.72;nan
41234;BME280;26968;42.686;23.352;2023-02-21T04:55:36;95488.13;;;5.02;nan
41234;BME280;26968;42.686;23.352;2023-02-21T04:58:01;95452.84;;;4.51;nan
41234;BME280;26968;42.686;23.352;2023-02-21T05:00:27;95519.06;;;5.12;nan
41234;BME280;26968;42.686;23.352;2023-02-21T05:02:52;95518.41;;;4.93;nan
41234;BME280;26968;42.686;23.352;2023-02-21T05:05:17;95510.31;;;4.94;nan
41234;BME280;26968;42.686;23.352;2023-02-21T05:07:43;95433.34;;;4.47;nan
41234;BME280;26968;42.686;23.352;2023-02-21T05:10:09;95444.72;;;4.76;nan
41234;BME280;26968;42.686;23.352;2023-02-21T05:12:35;95441.06;;;4.65;nan
41234;BME280;26968;42.686;23.352;2023-02-21T05:15:03;95473.53;;;4.71;nan
41234;BME280;26968;42.686;23.352;2023-02-21T05:17:29;95407.63;;;4.38;nan
41234;BME280;26968;42.686;23.352;2023-02-21T05:19:54;95407.75;;;4.43;nan
41234;BME280;26968;42.686;23.352;2023-02-21T05:22:20;95448.72;;;4.67;nan
41234;BME280;26968;42.686;23.352;2023-02-21T05:24:45;95333.25;;;3.85;nan
41234;BME280;26968;42.686;23.352;2023-02-21T05:27:14;95422.34;;;4.50;nan
41234;BME280;26968;42.686;23.352;2023-02-21T05:29:44;95436.06;;;4.64;nan
41234;BME280;26968;42.686;23.352;2023-02-21T05:32:10;95440.06;;;4.78;nan
41234;BME280;26968;42.686;23.352;2023-02-21T05:34:35;95459.94;;;4.86;nan
41234;BME280;26968;42.686;23.352;2023-02-21T05:37:01;95434.34;;;4.70;nan
41234;BME280;26968;42.686;23.352;2023-02-21T05:39:27;95481.38;;;5.06;nan
41234;BME280;26968;42.686;23.352;2023-02-21T05:41:53;95444.75;;;4.64;nan
41234;BME280;26968;42.686;23.352;2023-02-21T05:44:18;95446.13;;;4.79;nan
41234;BME280;26968;42.686;23.352;2023-02-21T05:46:44;95511.06;;;5.30;nan
41234;BME280;26968;42.686;23.352;2023-02-21T05:49:16;95430.78;;;4.87;nan
41234;BME280;26968;42.686;23.352;2023-02-21T05:51:42;95519.03;;;5.35;nan
41234;BME280;26968;42.686;23.352;2023-02-21T05:54:10;95511.75;;;5.25;nan
41234;BME280;26968;42.686;23.352;2023-02-21T05:56:38;95523.41;;;5.29;nan
41234;BME280;26968;42.686;23.352;2023-02-21T05:59:04;95458.69;;;4.77;nan
41234;BME280;26968;42.686;23.352;2023-02-21T06:01:30;95414.94;;;4.59;nan
41234;BME280;26968;42.686;23.352;2023-02-21T06:03:55;95435.94;;;4.71;nan
41234;BME280;26968;42.686;23.352;2023-02-21T06:06:21;95361.63;;;4.35;nan
41234;BME280;26968;42.686;23.352;2023-02-21T06:08:48;95474.16;;;5.13;nan
41234;BME280;26968;42.686;23.352;2023-02-21T06:11:15;95461.16;;;5.07;nan
41234;BME280;26968;42.686;23.352;2023-02-21T06:13:45;95409.13;;;4.45;nan
41234;BME280;26968;42.686;23.352;2023-02-21T06:16:11;95479.91;;;4.98;nan
41234;BME280;26968;42.686;23.352;2023-02-21T06:18:36;95460.38;;;4.94;nan
41234;BME280;26968;42.686;23.352;2023-02-21T06:21:02;95505.25;;;5.16;nan
41234;BME280;26968;42.686;23.352;2023-02-21T06:23:27;95514.47;;;5.30;nan
41234;BME280;26968;42.686;23.352;2023-02-21T06:25:52;95521.75;;;5.52;nan
41234;BME280;26968;42.686;23.352;2023-02-21T06:28:23;95427.59;;;4.85;nan
41234;BME280;26968;42.686;23.352;2023-02-21T06:30:51;95402.91;;;4.86;nan
41234;BME280;26968;42.686;23.352;2023-02-21T06:33:16;95391.00;;;4.95;nan
41234;BME280;26968;42.686;23.352;2023-02-21T06:35:42;95412.34;;;5.11;nan
41234;BME280;26968;42.686;23.352;2023-02-21T06:38:07;95537.78;;;5.90;nan
41234;BME280;26968;42.686;23.352;2023-02-21T06:40:32;95497.78;;;5.65;nan
41234;BME280;26968;42.686;23.352;2023-02-21T06:42:58;95544.59;;;6.03;nan
41234;BME280;26968;42.686;23.352;2023-02-21T06:45:23;95530.66;;;6.02;nan
41234;BME280;26968;42.686;23.352;2023-02-21T06:47:48;95515.88;;;6.01;nan
41234;BME280;26968;42.686;23.352;2023-02-21T06:50:14;95382.13;;;5.13;nan
41234;BME280;26968;42.686;23.352;2023-02-21T06:52:39;95459.91;;;5.49;nan
41234;BME280;26968;42.686;23.352;2023-02-21T06:55:05;95446.31;;;5.69;nan
41234;BME280;26968;42.686;23.352;2023-02-21T06:57:31;95537.63;;;6.42;nan
41234;BME280;26968;42.686;23.352;2023-02-21T06:59:56;95463.28;;;5.90;nan
41234;BME280;26968;42.686;23.352;2023-02-21T07:02:22;95417.31;;;5.52;nan
41234;BME280;26968;42.686;23.352;2023-02-21T07:04:47;95536.69;;;6.48;nan
41234;BME280;26968;42.686;23.352;2023-02-21T07:07:14;95537.19;;;6.62;nan
41234;BME280;26968;42.686;23.352;2023-02-21T07:09:39;95465.88;;;6.35;nan
41234;BME280;26968;42.686;23.352;2023-02-21T07:12:05;95454.88;;;6.38;nan
41234;BME280;26968;42.686;23.352;2023-02-21T07:14:34;95383.88;;;5.81;nan
41234;BME280;26968;42.686;23.352;2023-02-21T07:16:59;95518.47;;;6.80;nan
41234;BME280;26968;42.686;23.352;2023-02-21T07:19:24;95506.03;;;6.75;nan
41234;BME280;26968;42.686;23.352;2023-02-21T07:21:50;95459.97;;;6.61;nan
41234;BME280;26968;42.686;23.352;2023-02-21T07:24:15;95478.28;;;6.89;nan
41234;BME280;26968;42.686;23.352;2023-02-21T07:26:41;95447.63;;;6.83;nan
41234;BME280;26968;42.686;23.352;2023-02-21T07:29:07;95490.59;;;7.22;nan
41234;BME280;26968;42.686;23.352;2023-02-21T07:31:33;95515.44;;;7.48;nan
41234;BME280;26968;42.686;23.352;2023-02-21T07:33:58;95447.03;;;7.20;nan
41234;BME280;26968;42.686;23.352;2023-02-21T07:36:24;95346.13;;;6.64;nan
41234;BME280;26968;42.686;23.352;2023-02-21T07:38:49;95518.00;;;7.87;nan
41234;BME280;26968;42.686;23.352;2023-02-21T07:41:15;95464.44;;;7.43;nan
41234;BME280;26968;42.686;23.352;2023-02-21T07:43:41;95458.75;;;7.51;nan
41234;BME280;26968;42.686;23.352;2023-02-21T07:46:10;95513.06;;;7.95;nan
41234;BME280;26968;42.686;23.352;2023-02-21T07:48:36;95382.69;;;7.21;nan
41234;BME280;26968;42.686;23.352;2023-02-21T07:51:02;95445.16;;;7.64;nan
41234;BME280;26968;42.686;23.352;2023-02-21T07:53:27;95478.22;;;7.71;nan
41234;BME280;26968;42.686;23.352;2023-02-21T07:55:53;95505.25;;;8.05;nan
41234;BME280;26968;42.686;23.352;2023-02-21T07:58:18;95411.78;;;7.53;nan
41234;BME280;26968;42.686;23.352;2023-02-21T08:00:44;95471.56;;;7.91;nan
41234;BME280;26968;42.686;23.352;2023-02-21T08:03:13;95395.72;;;7.54;nan
41234;BME280;26968;42.686;23.352;2023-02-21T08:05:47;95427.63;;;7.80;nan
41234;BME280;26968;42.686;23.352;2023-02-21T08:08:14;95356.72;;;7.34;nan
41234;BME280;26968;42.686;23.352;2023-02-21T08:10:40;95388.53;;;7.50;nan
41234;BME280;26968;42.686;23.352;2023-02-21T08:13:06;95326.00;;;7.23;nan
41234;BME280;26968;42.686;23.352;2023-02-21T08:15:31;95400.84;;;7.66;nan
41234;BME280;26968;42.686;23.352;2023-02-21T08:17:56;95361.44;;;7.32;nan
41234;BME280;26968;42.686;23.352;2023-02-21T08:20:22;95475.84;;;8.24;nan
41234;BME280;26968;42.686;23.352;2023-02-21T08:22:47;95500.78;;;8.33;nan
41234;BME280;26968;42.686;23.352;2023-02-21T08:25:14;95330.28;;;7.29;nan
41234;BME280;26968;42.686;23.352;2023-02-21T08:27:41;95473.91;;;8.14;nan
41234;BME280;26968;42.686;23.352;2023-02-21T08:30:09;95446.78;;;7.92;nan
41234;BME280;26968;42.686;23.352;2023-02-21T08:32:35;95408.91;;;7.81;nan
41234;BME280;26968;42.686;23.352;2023-02-21T08:35:01;95347.34;;;7.49;nan
41234;BME280;26968;42.686;23.352;2023-02-21T08:37:28;95388.91;;;7.90;nan
41234;BME280;26968;42.686;23.352;2023-02-21T08:39:57;95422.16;;;8.18;nan
41234;BME280;26968;42.686;23.352;2023-02-21T08:42:23;95373.09;;;7.95;nan
41234;BME280;26968;42.686;23.352;2023-02-21T08:44:49;95460.78;;;8.56;nan
41234;BME280;26968;42.686;23.352;2023-02-21T08:47:15;95481.78;;;8.68;nan
41234;BME280;26968;42.686;23.352;2023-02-21T08:49:45;95428.84;;;8.63;nan
41234;BME280;26968;42.686;23.352;2023-02-21T08:52:15;95383.22;;;8.35;nan
41234;BME280;26968;42.686;23.352;2023-02-21T08:54:41;95437.97;;;8.82;nan
41234;BME280;26968;42.686;23.352;2023-02-21T08:57:08;95392.84;;;8.51;nan
41234;BME280;26968;42.686;23.352;2023-02-21T08:59:33;95349.34;;;8.32;nan
41234;BME280;26968;42.686;23.352;2023-02-21T09:01:59;95391.66;;;8.74;nan
41234;BME280;26968;42.686;23.352;2023-02-21T09:04:25;95464.09;;;9.20;nan
41234;BME280;26968;42.686;23.352;2023-02-21T09:06:53;95450.09;;;9.25;nan
41234;BME280;26968;42.686;23.352;2023-02-21T09:09:18;95388.84;;;8.91;nan
41234;BME280;26968;42.686;23.352;2023-02-21T09:11:45;95369.47;;;8.80;nan
41234;BME280;26968;42.686;23.352;2023-02-21T09:14:13;95397.03;;;8.95;nan
41234;BME280;26968;42.686;23.352;2023-02-21T09:16:38;95447.50;;;9.35;nan
41234;BME280;26968;42.686;23.352;2023-02-21T09:19:04;95318.31;;;8.55;nan
41234;BME280;26968;42.686;23.352;2023-02-21T09:21:33;95357.09;;;8.91;nan
41234;BME280;26968;42.686;23.352;2023-02-21T09:23:58;95380.44;;;9.04;nan
41234;BME280;26968;42.686;23.352;2023-02-21T09:26:25;95395.00;;;9.17;nan
41234;BME280;26968;42.686;23.352;2023-02-21T09:28:51;95336.19;;;8.95;nan
41234;BME280;26968;42.686;23.352;2023-02-21T09:31:17;95416.34;;;9.57;nan
41234;BME280;26968;42.686;23.352;2023-02-21T09:33:43;95296.50;;;8.84;nan
41234;BME280;26968;42.686;23.352;2023-02-21T09:36:10;95437.34;;;9.89;nan
41234;BME280;26968;42.686;23.352;2023-02-21T09:38:36;95355.16;;;9.49;nan
41234;BME280;26968;42.686;23.352;2023-02-21T09:41:23;95314.06;;;9.31;nan
41234;BME280;26968;42.686;23.352;2023-02-21T09:43:51;95308.03;;;9.36;nan
41234;BME280;26968;42.686;23.352;2023-02-21T09:48:54;95382.75;;;9.93;nan
41234;BME280;26968;42.686;23.352;2023-02-21T09:51:19;95409.03;;;10.25;nan
41234;BME280;26968;42.686;23.352;2023-02-21T09:53:46;95413.28;;;10.36;nan
41234;BME280;26968;42.686;23.352;2023-02-21T09:58:49;95319.72;;;9.95;nan
41234;BME280;26968;42.686;23.352;2023-02-21T10:01:24;95333.75;;;10.06;nan
41234;BME280;26968;42.686;23.352;2023-02-21T10:07:02;95400.50;;;10.74;nan
41234;BME280;26968;42.686;23.352;2023-02-21T10:09:53;95393.84;;;10.76;nan
41234;BME280;26968;42.686;23.352;2023-02-21T10:12:23;95391.44;;;10.85;nan
41234;BME280;26968;42.686;23.352;2023-02-21T10:17:41;95277.78;;;10.38;nan
41234;BME280;26968;42.686;23.352;2023-02-21T10:20:42;95321.41;;;11.40;nan
41234;BME280;26968;42.686;23.352;2023-02-21T10:23:14;95321.41;;;11.40;nan
41234;BME280;26968;42.686;23.352;2023-02-21T10:25:42;95364.47;;;14.84;nan
41234;BME280;26968;42.686;23.352;2023-02-21T10:28:16;95272.69;;;15.79;nan
41234;BME280;26968;42.686;23.352;2023-02-21T10:30:42;95360.72;;;17.66;nan
41234;BME280;26968;42.686;23.352;2023-02-21T10:33:11;95298.94;;;18.52;nan
41234;BME280;26968;42.686;23.352;2023-02-21T10:35:37;62207.84;;;-143.51;100.00
41234;BME280;26968;42.686;23.352;2023-02-21T10:38:12;95277.13;;;19.59;nan
41234;BME280;26968;42.686;23.352;2023-02-21T10:40:42;95331.38;;;20.24;nan
41234;BME280;26968;42.686;23.352;2023-02-21T10:48:35;95259.91;;;19.73;nan
41234;BME280;26968;42.686;23.352;2023-02-21T10:51:28;95319.94;;;20.27;nan
41234;BME280;26968;42.686;23.352;2023-02-21T10:54:20;95304.78;;;20.01;nan
41234;BME280;26968;42.686;23.352;2023-02-21T10:56:51;95301.44;;;19.84;nan
41234;BME280;26968;42.686;23.352;2023-02-21T10:59:26;95294.81;;;19.31;nan
41234;BME280;26968;42.686;23.352;2023-02-21T11:01:53;95272.50;;;19.31;nan
41234;BME280;26968;42.686;23.352;2023-02-21T11:06:51;95285.00;;;19.35;nan
41234;BME280;26968;42.686;23.352;2023-02-21T11:12:25;95193.63;;;17.92;nan
41234;BME280;26968;42.686;23.352;2023-02-21T11:17:24;95179.22;;;17.96;nan
41234;BME280;26968;42.686;23.352;2023-02-21T11:20:16;95263.47;;;18.30;nan
41234;BME280;26968;42.686;23.352;2023-02-21T11:22:44;95240.16;;;17.96;nan
41234;BME280;26968;42.686;23.352;2023-02-21T11:27:39;95253.44;;;18.47;100.00
41234;BME280;26968;42.686;23.352;2023-02-21T11:30:20;62207.84;;;-143.51;100.00
41234;BME280;26968;42.686;23.352;2023-02-21T11:32:53;95253.44;;;18.47;nan
41234;BME280;26968;42.686;23.352;2023-02-21T11:37:57;95269.97;;;18.03;nan
41234;BME280;26968;42.686;23.352;2023-02-21T11:40:46;95234.00;;;17.87;nan
41234;BME280;26968;42.686;23.352;2023-02-21T11:48:46;95190.75;;;17.97;nan
41234;BME280;26968;42.686;23.352;2023-02-21T11:51:31;95227.94;;;18.24;nan
41234;BME280;26968;42.686;23.352;2023-02-21T11:53:57;95197.53;;;18.03;nan
41234;BME280;26968;42.686;23.352;2023-02-21T12:04:58;95156.88;;;18.30;nan
41234;BME280;26968;42.686;23.352;2023-02-21T12:27:16;95012.88;;;17.50;nan
41234;BME280;26968;42.686;23.352;2023-02-21T12:32:24;95154.84;;;18.19;nan
41234;BME280;26968;42.686;23.352;2023-02-21T12:37:28;95148.41;;;18.11;nan
41234;BME280;26968;42.686;23.352;2023-02-21T12:40:07;95146.19;;;18.13;nan
41234;BME280;26968;42.686;23.352;2023-02-21T12:45:40;95127.75;;;18.41;nan
41234;BME280;26968;42.686;23.352;2023-02-21T12:48:23;95116.91;;;18.67;nan
41234;BME280;26968;42.686;23.352;2023-02-21T12:50:53;95128.03;;;18.77;nan
41234;BME280;26968;42.686;23.352;2023-02-21T12:53:30;95106.47;;;18.65;nan
41234;BME280;26968;42.686;23.352;2023-02-21T12:56:07;95133.41;;;18.77;nan
41234;BME280;26968;42.686;23.352;2023-02-21T12:58:57;95127.25;;;18.77;nan
41234;BME280;26968;42.686;23.352;2023-02-21T13:01:32;95103.69;;;18.82;nan
41234;BME280;26968;42.686;23.352;2023-02-21T13:06:33;95126.75;;;19.04;nan
41234;BME280;26968;42.686;23.352;2023-02-21T13:09:32;95128.38;;;18.76;nan
41234;BME280;26968;42.686;23.352;2023-02-21T13:14:54;95030.34;;;18.32;nan
41234;BME280;26968;42.686;23.352;2023-02-21T13:17:21;95089.09;;;18.63;nan
41234;BME280;26968;42.686;23.352;2023-02-21T13:28:18;94966.22;;;18.93;nan
41234;BME280;26968;42.686;23.352;2023-02-21T13:30:50;95098.66;;;19.55;nan
41234;BME280;26968;42.686;23.352;2023-02-21T13:33:43;95042.66;;;19.04;nan
41234;BME280;26968;42.686;23.352;2023-02-21T13:36:39;95112.47;;;18.92;nan
41234;BME280;26968;42.686;23.352;2023-02-21T13:41:39;95070.31;;;18.54;nan
41234;BME280;26968;42.686;23.352;2023-02-21T13:44:09;95084.78;;;18.70;nan
41234;BME280;26968;42.686;23.352;2023-02-21T13:49:38;95088.47;;;18.86;nan
41234;BME280;26968;42.686;23.352;2023-02-21T13:57:49;95072.81;;;18.88;nan
41234;BME280;26968;42.686;23.352;2023-02-21T14:08:18;95042.88;;;18.48;nan
41234;BME280;26968;42.686;23.352;2023-02-21T14:10:59;95054.84;;;18.30;nan
41234;BME280;26968;42.686;23.352;2023-02-21T14:13:45;95053.88;;;18.56;nan
41234;BME280;26968;42.686;23.352;2023-02-21T14:16:19;95067.44;;;18.68;nan
41234;BME280;26968;42.686;23.352;2023-02-21T14:18:58;95023.34;;;18.39;nan
41234;BME280;26968;42.686;23.352;2023-02-21T14:21:43;95072.94;;;18.71;nan
41234;BME280;26968;42.686;23.352;2023-02-21T14:24:13;95068.72;;;18.62;nan
41234;BME280;26968;42.686;23.352;2023-02-21T14:29:33;95019.81;;;18.27;nan
41234;BME280;26968;42.686;23.352;2023-02-21T14:37:32;95049.66;;;18.25;nan
41234;BME280;26968;42.686;23.352;2023-02-21T14:42:41;95058.34;;;18.31;nan
41234;BME280;26968;42.686;23.352;2023-02-21T15:02:39;95011.16;;;18.21;nan
41234;BME280;26968;42.686;23.352;2023-02-21T15:06:23;95051.41;;;18.50;nan
41234;BME280;26968;42.686;23.352;2023-02-21T15:08:26;95052.31;;;18.55;nan
41234;BME280;26968;42.686;23.352;2023-02-21T15:10:58;95048.03;;;18.62;nan
41234;BME280;26968;42.686;23.352;2023-02-21T15:13:34;95050.78;;;18.74;nan
41234;BME280;26968;42.686;23.352;2023-02-21T15:16:04;95049.09;;;18.91;nan
41234;BME280;26968;42.686;23.352;2023-02-21T15:18:35;95047.22;;;18.62;nan
41234;BME280;26968;42.686;23.352;2023-02-21T15:23:41;95024.41;;;18.47;nan
41234;BME280;26968;42.686;23.352;2023-02-21T15:26:28;95034.84;;;18.19;nan
41234;BME280;26968;42.686;23.352;2023-02-21T15:31:37;95059.94;;;18.23;nan
41234;BME280;26968;42.686;23.352;2023-02-21T15:34:03;95056.66;;;18.18;nan
41234;BME280;26968;42.686;23.352;2023-02-21T15:36:30;95043.22;;;17.88;nan
41234;BME280;26968;42.686;23.352;2023-02-21T15:39:09;95033.06;;;17.47;nan
41234;BME280;26968;42.686;23.352;2023-02-21T15:41:47;95015.66;;;17.15;nan
41234;BME280;26968;42.686;23.352;2023-02-21T15:44:25;95035.84;;;17.13;nan
41234;BME280;26968;42.686;23.352;2023-02-21T15:49:32;95041.06;;;17.01;nan
41234;BME280;26968;42.686;23.352;2023-02-21T15:52:02;95082.81;;;17.10;nan
41234;BME280;26968;42.686;23.352;2023-02-21T15:54:33;95072.88;;;17.02;nan
41234;BME280;26968;42.686;23.352;2023-02-21T15:59:32;95081.84;;;16.63;nan
41234;BME280;26968;42.686;23.352;2023-02-21T16:04:38;95081.47;;;16.56;nan
41234;BME280;26968;42.686;23.352;2023-02-21T16:07:06;95083.69;;;16.45;nan
41234;BME280;26968;42.686;23.352;2023-02-21T16:09:45;95057.59;;;16.03;nan
41234;BME280;26968;42.686;23.352;2023-02-21T16:14:47;95094.75;;;16.04;nan
41234;BME280;26968;42.686;23.352;2023-02-21T16:17:30;95098.91;;;15.88;nan
41234;BME280;26968;42.686;23.352;2023-02-21T16:20:08;95097.34;;;15.87;nan
41234;BME280;26968;42.686;23.352;2023-02-21T16:22:39;95099.78;;;15.66;nan
41234;BME280;26968;42.686;23.352;2023-02-21T16:27:43;95053.16;;;15.05;nan
41234;BME280;26968;42.686;23.352;2023-02-21T16:30:19;95083.03;;;15.30;nan
41234;BME280;26968;42.686;23.352;2023-02-21T16:32:47;95098.31;;;15.38;nan
41234;BME280;26968;42.686;23.352;2023-02-21T16:35:21;95095.72;;;15.24;nan
41234;BME280;26968;42.686;23.352;2023-02-21T16:37:49;95104.13;;;14.95;nan
41234;BME280;26968;42.686;23.352;2023-02-21T16:40:19;95106.34;;;14.93;nan
41234;BME280;26968;42.686;23.352;2023-02-21T16:42:48;95109.06;;;14.80;nan
41234;BME280;26968;42.686;23.352;2023-02-21T16:45:14;95105.41;;;14.76;nan
41234;BME280;26968;42.686;23.352;2023-02-21T16:47:40;95025.56;;;14.16;nan
41234;BME280;26968;42.686;23.352;2023-02-21T16:50:37;95092.88;;;14.62;nan
41234;BME280;26968;42.686;23.352;2023-02-21T16:53:03;95115.19;;;14.66;nan
41234;BME280;26968;42.686;23.352;2023-02-21T16:55:29;95062.00;;;14.34;nan